sensor_id;sensor_type;location;lat;lon;timestamp;temperature;humidity
37086;DHT22;23001;45.952;12.676;2023-07-16T04:27:51;24.30;99.90
37086;DHT22;23001;45.952;12.676;2023-07-16T04:30:17;24.40;99.90
37086;DHT22;23001;45.952;12.676;2023-07-16T04:32:43;24.40;99.90
37086;DHT22;23001;45.952;12.676;2023-07-16T04:35:09;24.50;99.90
37086;DHT22;23001;45.952;12.676;2023-07-16T04:37:37;24.40;99.90
37086;DHT22;23001;45.952;12.676;2023-07-16T04:40:02;24.40;99.90
37086;DHT22;23001;45.952;12.676;2023-07-16T04:42:29;24.40;99.90
37086;DHT22;23001;45.952;12.676;2023-07-16T06:20:07;29.20;99.90
37086;DHT22;23001;45.952;12.676;2023-07-16T06:23:18;29.40;99.90
37086;DHT22;23001;45.952;12.676;2023-07-16T06:28:49;29.80;99.90
37086;DHT22;23001;45.952;12.676;2023-07-16T06:40:13;30.40;99.90
37086;DHT22;23001;45.952;12.676;2023-07-16T06:45:58;30.70;99.90
37086;DHT22;23001;45.952;12.676;2023-07-16T06:48:24;30.80;99.90
37086;DHT22;23001;45.952;12.676;2023-07-16T06:50:50;30.90;99.90
37086;DHT22;23001;45.952;12.676;2023-07-16T06:53:16;31.00;99.90
37086;DHT22;23001;45.952;12.676;2023-07-16T06:56:39;30.80;99.90
37086;DHT22;23001;45.952;12.676;2023-07-16T06:59:12;31.10;99.90
37086;DHT22;23001;45.952;12.676;2023-07-16T07:01:46;31.20;99.90
37086;DHT22;23001;45.952;12.676;2023-07-16T07:04:18;31.30;99.90
37086;DHT22;23001;45.952;12.676;2023-07-16T07:06:44;31.40;99.90
37086;DHT22;23001;45.952;12.676;2023-07-16T07:09:15;31.00;99.90
37086;DHT22;23001;45.952;12.676;2023-07-16T07:11:44;30.90;99.90
37086;DHT22;23001;45.952;12.676;2023-07-16T07:14:17;31.00;99.90
37086;DHT22;23001;45.952;12.676;2023-07-16T07:16:46;31.10;99.90
37086;DHT22;23001;45.952;12.676;2023-07-16T07:19:54;31.30;99.90
37086;DHT22;23001;45.952;12.676;2023-07-16T07:41:15;31.20;99.90
37086;DHT22;23001;45.952;12.676;2023-07-16T07:43:41;31.50;99.90
37086;DHT22;23001;45.952;12.676;2023-07-16T07:46:06;31.70;99.90
37086;DHT22;23001;45.952;12.676;2023-07-16T07:48:52;31.80;99.90
37086;DHT22;23001;45.952;12.676;2023-07-16T07:51:19;32.00;99.90
37086;DHT22;23001;45.952;12.676;2023-07-16T07:53:45;31.70;99.90
37086;DHT22;23001;45.952;12.676;2023-07-16T07:56:10;31.70;99.90
37086;DHT22;23001;45.952;12.676;2023-07-16T08:04:50;31.70;99.90
37086;DHT22;23001;45.952;12.676;2023-07-16T08:16:54;31.70;99.90
37086;DHT22;23001;45.952;12.676;2023-07-16T08:19:13;31.60;99.90
37086;DHT22;23001;45.952;12.676;2023-07-16T08:24:43;31.80;99.90
37086;DHT22;23001;45.952;12.676;2023-07-16T08:30:22;31.80;99.90
37086;DHT22;23001;45.952;12.676;2023-07-16T09:28:21;31.70;99.90
37086;DHT22;23001;45.952;12.676;2023-07-16T09:36:49;31.70;99.90
37086;DHT22;23001;45.952;12.676;2023-07-16T09:45:16;31.70;99.90
37086;DHT22;23001;45.952;12.676;2023-07-16T09:54:14;31.50;99.90
37086;DHT22;23001;45.952;12.676;2023-07-16T09:57:18;31.70;99.90
37086;DHT22;23001;45.952;12.676;2023-07-16T09:59:52;31.40;99.90
37086;DHT22;23001;45.952;12.676;2023-07-16T10:02:43;31.40;99.90
37086;DHT22;23001;45.952;12.676;2023-07-16T10:07:57;31.80;99.90
37086;DHT22;23001;45.952;12.676;2023-07-16T10:20:08;31.70;99.90
37086;DHT22;23001;45.952;12.676;2023-07-16T10:22:40;31.50;99.90
37086;DHT22;23001;45.952;12.676;2023-07-16T10:37:05;31.80;99.90
37086;DHT22;23001;45.952;12.676;2023-07-16T10:39:38;31.70;99.90
37086;DHT22;23001;45.952;12.676;2023-07-16T10:42:13;31.70;99.90
37086;DHT22;23001;45.952;12.676;2023-07-16T10:44:42;31.80;99.90
37086;DHT22;23001;45.952;12.676;2023-07-16T10:53:10;31.80;99.90
37086;DHT22;23001;45.952;12.676;2023-07-16T10:55:48;31.80;99.90
37086;DHT22;23001;45.952;12.676;2023-07-16T11:01:17;32.30;99.90
37086;DHT22;23001;45.952;12.676;2023-07-16T11:03:51;32.20;99.90
37086;DHT22;23001;45.952;12.676;2023-07-16T11:06:29;32.20;99.90
37086;DHT22;23001;45.952;12.676;2023-07-16T11:08:54;32.40;99.90
37086;DHT22;23001;45.952;12.676;2023-07-16T11:14:13;32.20;99.90
37086;DHT22;23001;45.952;12.676;2023-07-16T11:16:39;32.40;99.90
37086;DHT22;23001;45.952;12.676;2023-07-16T11:19:23;32.50;99.90
37086;DHT22;23001;45.952;12.676;2023-07-16T11:40:25;32.80;99.90
37086;DHT22;23001;45.952;12.676;2023-07-16T11:42:51;32.60;99.90
37086;DHT22;23001;45.952;12.676;2023-07-16T11:45:23;32.60;99.90
37086;DHT22;23001;45.952;12.676;2023-07-16T11:47:51;32.70;99.90
37086;DHT22;23001;45.952;12.676;2023-07-16T11:50:17;32.60;99.90
37086;DHT22;23001;45.952;12.676;2023-07-16T11:52:43;32.00;99.90
37086;DHT22;23001;45.952;12.676;2023-07-16T11:55:08;31.70;99.90
37086;DHT22;23001;45.952;12.676;2023-07-16T11:57:46;31.90;99.90
37086;DHT22;23001;45.952;12.676;2023-07-16T12:03:10;32.40;99.90
37086;DHT22;23001;45.952;12.676;2023-07-16T12:05:41;32.60;99.90
37086;DHT22;23001;45.952;12.676;2023-07-16T12:08:07;32.80;99.90
37086;DHT22;23001;45.952;12.676;2023-07-16T12:13:50;33.00;99.90
37086;DHT22;23001;45.952;12.676;2023-07-16T12:16:29;33.10;99.90
37086;DHT22;23001;45.952;12.676;2023-07-16T12:19:41;33.10;99.90
37086;DHT22;23001;45.952;12.676;2023-07-16T12:21:46;33.10;99.90
37086;DHT22;23001;45.952;12.676;2023-07-16T12:24:29;33.10;99.90
37086;DHT22;23001;45.952;12.676;2023-07-16T12:26:57;33.10;99.90
37086;DHT22;23001;45.952;12.676;2023-07-16T12:29:23;33.20;99.90
37086;DHT22;23001;45.952;12.676;2023-07-16T12:34:38;33.00;99.90
37086;DHT22;23001;45.952;12.676;2023-07-16T12:37:07;33.10;99.90
37086;DHT22;23001;45.952;12.676;2023-07-16T12:39:36;33.20;99.90
37086;DHT22;23001;45.952;12.676;2023-07-16T12:42:01;33.10;99.90
37086;DHT22;23001;45.952;12.676;2023-07-16T12:44:33;33.10;99.90
37086;DHT22;23001;45.952;12.676;2023-07-16T12:46:59;33.20;99.90
37086;DHT22;23001;45.952;12.676;2023-07-16T12:49:32;33.30;99.90
37086;DHT22;23001;45.952;12.676;2023-07-16T12:51:58;33.20;99.90
37086;DHT22;23001;45.952;12.676;2023-07-16T12:54:24;32.80;99.90
37086;DHT22;23001;45.952;12.676;2023-07-16T12:56:49;32.90;99.90
37086;DHT22;23001;45.952;12.676;2023-07-16T12:59:15;33.10;99.90
37086;DHT22;23001;45.952;12.676;2023-07-16T13:04:47;33.20;99.90
37086;DHT22;23001;45.952;12.676;2023-07-16T13:07:13;32.90;99.90
37086;DHT22;23001;45.952;12.676;2023-07-16T13:09:48;32.90;99.90
37086;DHT22;23001;45.952;12.676;2023-07-16T13:12:13;32.90;99.90
37086;DHT22;23001;45.952;12.676;2023-07-16T13:14:39;33.10;99.90
37086;DHT22;23001;45.952;12.676;2023-07-16T13:17:04;33.00;99.90
37086;DHT22;23001;45.952;12.676;2023-07-16T13:19:30;33.00;99.90
37086;DHT22;23001;45.952;12.676;2023-07-16T13:21:56;32.90;99.90
37086;DHT22;23001;45.952;12.676;2023-07-16T13:24:42;33.00;99.90
37086;DHT22;23001;45.952;12.676;2023-07-16T13:27:19;33.10;99.90
37086;DHT22;23001;45.952;12.676;2023-07-16T13:29:44;33.20;99.90
37086;DHT22;23001;45.952;12.676;2023-07-16T13:32:10;33.10;99.90
37086;DHT22;23001;45.952;12.676;2023-07-16T13:34:56;33.10;99.90
37086;DHT22;23001;45.952;12.676;2023-07-16T13:37:21;33.20;99.90
37086;DHT22;23001;45.952;12.676;2023-07-16T13:39:47;33.20;99.90
37086;DHT22;23001;45.952;12.676;2023-07-16T13:45:17;33.10;99.90
37086;DHT22;23001;45.952;12.676;2023-07-16T13:47:43;33.10;99.90
37086;DHT22;23001;45.952;12.676;2023-07-16T13:53:15;33.20;99.90
37086;DHT22;23001;45.952;12.676;2023-07-16T13:55:43;33.20;99.90
37086;DHT22;23001;45.952;12.676;2023-07-16T13:58:09;33.10;99.90
37086;DHT22;23001;45.952;12.676;2023-07-16T14:00:36;33.10;99.90
37086;DHT22;23001;45.952;12.676;2023-07-16T14:03:08;33.20;99.90
37086;DHT22;23001;45.952;12.676;2023-07-16T14:05:33;33.20;99.90
37086;DHT22;23001;45.952;12.676;2023-07-16T14:08:04;33.20;99.90
37086;DHT22;23001;45.952;12.676;2023-07-16T14:10:30;33.40;99.90
37086;DHT22;23001;45.952;12.676;2023-07-16T14:12:58;33.30;99.90
37086;DHT22;23001;45.952;12.676;2023-07-16T14:15:23;33.30;99.90
37086;DHT22;23001;45.952;12.676;2023-07-16T14:17:49;33.30;99.90
37086;DHT22;23001;45.952;12.676;2023-07-16T14:20:14;33.20;99.70
37086;DHT22;23001;45.952;12.676;2023-07-16T14:22:40;33.20;99.90
37086;DHT22;23001;45.952;12.676;2023-07-16T14:25:09;33.10;99.90
37086;DHT22;23001;45.952;12.676;2023-07-16T14:27:34;33.10;99.90
37086;DHT22;23001;45.952;12.676;2023-07-16T14:30:00;33.10;99.90
37086;DHT22;23001;45.952;12.676;2023-07-16T14:32:26;33.10;99.90
37086;DHT22;23001;45.952;12.676;2023-07-16T14:34:57;33.20;99.80
37086;DHT22;23001;45.952;12.676;2023-07-16T14:37:22;33.10;99.70
37086;DHT22;23001;45.952;12.676;2023-07-16T14:39:48;33.20;99.50
37086;DHT22;23001;45.952;12.676;2023-07-16T14:42:14;33.10;99.90
37086;DHT22;23001;45.952;12.676;2023-07-16T14:44:39;33.00;99.90
37086;DHT22;23001;45.952;12.676;2023-07-16T14:47:05;33.10;99.90
37086;DHT22;23001;45.952;12.676;2023-07-16T14:49:31;33.00;99.90
37086;DHT22;23001;45.952;12.676;2023-07-16T14:51:57;33.00;99.90
37086;DHT22;23001;45.952;12.676;2023-07-16T14:54:26;33.10;99.90
37086;DHT22;23001;45.952;12.676;2023-07-16T14:56:54;33.10;99.90
37086;DHT22;23001;45.952;12.676;2023-07-16T15:02:53;33.10;99.90
37086;DHT22;23001;45.952;12.676;2023-07-16T15:09:00;33.00;99.90
37086;DHT22;23001;45.952;12.676;2023-07-16T15:11:44;33.00;99.90
37086;DHT22;23001;45.952;12.676;2023-07-16T15:24:38;32.80;99.90
37086;DHT22;23001;45.952;12.676;2023-07-16T15:30:11;33.00;99.90
37086;DHT22;23001;45.952;12.676;2023-07-16T15:32:38;33.10;99.90
37086;DHT22;23001;45.952;12.676;2023-07-16T15:41:22;33.00;99.90
37086;DHT22;23001;45.952;12.676;2023-07-16T15:47:17;33.20;99.90
37086;DHT22;23001;45.952;12.676;2023-07-16T15:49:58;33.10;99.90
37086;DHT22;23001;45.952;12.676;2023-07-16T15:52:50;33.00;99.90
37086;DHT22;23001;45.952;12.676;2023-07-16T15:55:38;33.00;99.90
37086;DHT22;23001;45.952;12.676;2023-07-16T16:01:28;32.80;99.90
37086;DHT22;23001;45.952;12.676;2023-07-16T16:30:21;32.50;99.90
37086;DHT22;23001;45.952;12.676;2023-07-16T16:45:21;32.50;99.90
37086;DHT22;23001;45.952;12.676;2023-07-16T16:48:02;32.50;99.90
37086;DHT22;23001;45.952;12.676;2023-07-16T16:56:55;32.40;99.90
37086;DHT22;23001;45.952;12.676;2023-07-16T16:59:48;32.30;99.90
37086;DHT22;23001;45.952;12.676;2023-07-16T17:05:02;32.20;99.90
37086;DHT22;23001;45.952;12.676;2023-07-16T17:07:31;32.30;99.90
37086;DHT22;23001;45.952;12.676;2023-07-16T18:37:57;30.90;99.90
37086;DHT22;23001;45.952;12.676;2023-07-16T20:32:37;29.10;99.90
37086;DHT22;23001;45.952;12.676;2023-07-16T20:35:41;28.90;99.90
37086;DHT22;23001;45.952;12.676;2023-07-16T20:38:41;28.90;99.90
37086;DHT22;23001;45.952;12.676;2023-07-16T20:41:37;29.00;99.90
37086;DHT22;23001;45.952;12.676;2023-07-16T21:10:18;28.70;99.90
37086;DHT22;23001;45.952;12.676;2023-07-16T21:35:00;28.50;99.90
37086;DHT22;23001;45.952;12.676;2023-07-16T21:37:25;28.50;99.90
37086;DHT22;23001;45.952;12.676;2023-07-16T21:40:00;28.50;99.90
37086;DHT22;23001;45.952;12.676;2023-07-16T21:42:35;28.50;99.90
37086;DHT22;23001;45.952;12.676;2023-07-16T21:45:06;28.50;99.90
37086;DHT22;23001;45.952;12.676;2023-07-16T21:47:35;28.40;99.90
37086;DHT22;23001;45.952;12.676;2023-07-16T21:50:08;28.30;99.90
37086;DHT22;23001;45.952;12.676;2023-07-16T21:52:44;28.30;99.90
37086;DHT22;23001;45.952;12.676;2023-07-16T21:55:17;28.30;99.90
37086;DHT22;23001;45.952;12.676;2023-07-16T21:57:48;28.30;99.90
37086;DHT22;23001;45.952;12.676;2023-07-16T22:00:23;28.20;99.90
37086;DHT22;23001;45.952;12.676;2023-07-16T22:02:55;28.20;99.90
